createdAt,value
2017-07-21T07:43:29.117Z,1014.752
2017-07-21T07:49:25.019Z,1014.792
2017-07-21T07:52:20.530Z,1014.822
2017-07-21T07:59:07.477Z,1014.941
2017-07-21T08:17:40.762Z,1015.077
2017-07-21T08:27:11.408Z,1015.224
2017-07-21T08:33:30.026Z,1015.274
2017-07-21T08:42:27.001Z,1015.272
2017-07-21T08:57:25.347Z,1015.381
2017-07-21T09:17:39.944Z,1015.430
2017-07-21T09:22:28.156Z,1015.403
2017-07-21T09:25:12.658Z,1015.432
2017-07-21T09:28:07.082Z,1015.414
2017-07-21T09:39:19.234Z,1015.411
2017-07-21T09:42:03.298Z,1015.402
2017-07-21T09:46:16.941Z,1015.407
2017-07-21T09:49:36.373Z,1015.394
2017-07-21T09:57:58.125Z,1015.432
2017-07-21T10:00:45.435Z,1015.389
2017-07-21T10:04:59.955Z,1015.392
2017-07-21T10:07:45.732Z,1015.392
2017-07-21T10:10:40.917Z,1015.369
2017-07-21T10:13:36.336Z,1015.366
2017-07-21T10:19:27.620Z,1015.350
2017-07-21T10:22:23.368Z,1015.378
2017-07-21T10:25:18.797Z,1015.425
2017-07-21T10:28:37.039Z,1015.372
2017-07-21T10:31:25.936Z,1015.381
2017-07-21T10:34:21.376Z,1015.406
2017-07-21T10:37:17.042Z,1015.395
2017-07-21T10:40:12.475Z,1015.362
2017-07-21T10:43:07.822Z,1015.384
2017-07-21T10:46:03.216Z,1015.364
2017-07-21T10:48:58.590Z,1015.403
2017-07-21T10:52:05.288Z,1015.369
2017-07-21T10:56:26.305Z,1015.359
2017-07-21T10:59:11.808Z,1015.351
2017-07-21T11:02:06.682Z,1015.325
2017-07-21T11:05:01.937Z,1015.342
2017-07-21T11:07:57.335Z,1015.332
2017-07-21T11:10:52.660Z,1015.323
2017-07-21T11:13:48.042Z,1015.315
2017-07-21T11:16:43.500Z,1015.357
2017-07-21T11:19:38.969Z,1015.333
2017-07-21T11:22:34.249Z,1015.311
2017-07-21T11:25:29.622Z,1015.293
2017-07-21T11:34:49.136Z,1015.314
2017-07-21T11:37:33.361Z,1015.279
2017-07-21T11:40:27.828Z,1015.255
2017-07-21T11:45:27.120Z,1015.177
2017-07-21T11:48:12.052Z,1015.208
2017-07-21T11:51:06.793Z,1015.226
2017-07-21T11:54:01.842Z,1015.249
2017-07-21T11:56:57.128Z,1015.238
2017-07-21T11:59:52.349Z,1015.237
2017-07-21T12:03:44.682Z,1015.192
2017-07-21T12:06:30.813Z,1015.188
2017-07-21T12:09:25.890Z,1015.180
2017-07-21T12:12:21.210Z,1015.142
2017-07-21T12:15:16.414Z,1015.162
2017-07-21T12:18:11.688Z,1015.126
2017-07-21T12:21:07.032Z,1015.090
2017-07-21T12:24:24.964Z,1015.094
2017-07-21T12:27:13.506Z,1015.086
2017-07-21T12:30:08.666Z,1015.055
2017-07-21T12:33:03.876Z,1015.032
2017-07-21T12:35:59.243Z,1015.029
2017-07-21T12:38:54.554Z,1015.013
2017-07-21T12:43:31.458Z,1014.917
2017-07-21T12:46:28.035Z,1014.956
2017-07-21T12:51:22.525Z,1014.872
2017-07-21T12:54:07.502Z,1014.867
2017-07-21T12:58:43.855Z,1014.813
2017-07-21T13:01:28.928Z,1014.858
2017-07-21T13:04:23.791Z,1014.887
2017-07-21T13:07:18.987Z,1014.876
2017-07-21T13:10:14.372Z,1014.905
2017-07-21T13:13:09.720Z,1014.891
2017-07-21T13:16:16.339Z,1014.832
2017-07-21T13:19:06.744Z,1014.829
2017-07-21T13:24:28.870Z,1014.806
2017-07-21T13:27:13.726Z,1014.774
2017-07-21T13:30:08.397Z,1014.767
2017-07-21T13:33:03.274Z,1014.773
2017-07-21T13:35:58.606Z,1014.772
2017-07-21T13:38:53.784Z,1014.711
2017-07-21T13:41:49.093Z,1014.721
2017-07-21T13:47:55.547Z,1014.702
2017-07-21T13:53:46.118Z,1014.628
2017-07-21T13:56:41.382Z,1014.669
2017-07-21T13:59:36.774Z,1014.620
2017-07-21T14:02:32.009Z,1014.617
2017-07-21T14:05:27.218Z,1014.577
2017-07-21T14:10:26.859Z,1014.561
2017-07-21T14:13:57.141Z,1014.513
2017-07-21T14:16:43.416Z,1014.497
2017-07-21T14:19:38.411Z,1014.492
2017-07-21T14:22:33.625Z,1014.439
2017-07-21T14:25:28.867Z,1014.385
2017-07-21T14:28:24.174Z,1014.402
2017-07-21T14:31:19.707Z,1014.388
2017-07-21T14:34:15.134Z,1014.369
2017-07-21T14:37:10.395Z,1014.347
2017-07-21T14:40:05.633Z,1014.354
2017-07-21T14:43:00.876Z,1014.341
2017-07-21T14:45:56.165Z,1014.376
2017-07-21T14:48:51.534Z,1014.391
2017-07-21T14:51:46.805Z,1014.401
2017-07-21T14:55:15.980Z,1014.387
2017-07-21T14:58:03.365Z,1014.355
2017-07-21T15:00:58.495Z,1014.328
2017-07-21T15:03:53.826Z,1014.348
2017-07-21T15:06:49.233Z,1014.332
2017-07-21T15:09:44.580Z,1014.316
2017-07-21T15:12:39.903Z,1014.268
2017-07-21T15:15:35.226Z,1014.242
2017-07-21T15:18:30.569Z,1014.222
2017-07-21T15:21:25.967Z,1014.195
2017-07-21T15:24:21.163Z,1014.169
2017-07-21T15:27:16.420Z,1014.154
2017-07-21T15:30:11.736Z,1014.125
2017-07-21T15:33:07.059Z,1014.104
2017-07-21T15:36:02.388Z,1014.105
2017-07-21T15:38:57.726Z,1014.084
2017-07-21T15:41:52.985Z,1014.066
2017-07-21T15:44:48.303Z,1014.070
2017-07-21T15:47:43.635Z,1014.055
2017-07-21T15:50:38.891Z,1014.073
2017-07-21T15:53:34.201Z,1014.058
2017-07-21T15:56:29.670Z,1014.053
2017-07-21T15:59:25.002Z,1014.038
2017-07-21T16:02:20.296Z,1014.033
2017-07-21T16:05:15.606Z,1014.018
2017-07-21T16:08:11.012Z,1014.034
2017-07-21T16:11:06.236Z,1013.997
2017-07-21T16:14:01.515Z,1013.982
2017-07-21T16:16:56.796Z,1013.975
2017-07-21T16:19:52.057Z,1013.986
2017-07-21T16:22:47.398Z,1013.973
2017-07-21T16:25:42.623Z,1013.936
2017-07-21T16:28:37.964Z,1013.938
2017-07-21T16:31:33.194Z,1013.938
2017-07-21T16:34:28.499Z,1013.952
2017-07-21T16:37:23.896Z,1013.967
2017-07-21T16:40:19.100Z,1013.944
2017-07-21T16:43:14.480Z,1013.921
2017-07-21T16:46:20.875Z,1013.945
2017-07-21T16:49:11.395Z,1013.943
2017-07-21T16:52:06.656Z,1013.973
2017-07-21T16:55:01.939Z,1013.970
2017-07-21T16:57:57.258Z,1013.940
2017-07-21T17:00:52.515Z,1013.934
2017-07-21T17:03:47.775Z,1013.935
2017-07-21T17:06:43.174Z,1013.949
2017-07-21T17:09:38.534Z,1013.926
2017-07-21T17:12:33.832Z,1013.911
2017-07-21T17:15:29.050Z,1013.914
2017-07-21T17:18:24.336Z,1013.875
2017-07-21T17:21:19.623Z,1013.849
2017-07-21T17:24:14.897Z,1013.835
2017-07-21T17:27:10.206Z,1013.818
2017-07-21T17:30:05.302Z,1013.845
2017-07-21T17:33:00.571Z,1013.868
2017-07-21T17:35:55.852Z,1013.873
2017-07-21T17:38:51.093Z,1013.857
2017-07-21T17:44:41.640Z,1013.884
2017-07-21T17:47:36.962Z,1013.895
2017-07-21T17:50:32.195Z,1013.921
2017-07-21T17:53:27.475Z,1013.933
2017-07-21T17:56:22.762Z,1013.926
2017-07-21T18:02:13.394Z,1013.888
2017-07-21T18:05:08.675Z,1013.882
2017-07-21T18:08:03.847Z,1013.865
2017-07-21T18:10:59.085Z,1013.874
2017-07-21T18:13:54.260Z,1013.871
2017-07-21T18:16:49.462Z,1013.853
2017-07-21T18:19:44.610Z,1013.883
2017-07-21T18:22:39.751Z,1013.915
2017-07-21T18:25:34.968Z,1013.925
2017-07-21T18:28:30.243Z,1013.964
2017-07-21T18:31:25.491Z,1014.020
2017-07-21T18:34:20.713Z,1014.045
2017-07-21T18:37:15.964Z,1014.023
2017-07-21T18:40:11.207Z,1014.011
2017-07-21T18:43:06.327Z,1014.026
2017-07-21T18:46:01.698Z,1014.050
2017-07-21T18:48:56.907Z,1014.036
2017-07-21T18:51:52.146Z,1014.075
2017-07-21T18:54:47.365Z,1014.077
2017-07-21T19:00:37.809Z,1014.098
2017-07-21T19:03:33.062Z,1014.093
2017-07-21T19:06:28.242Z,1014.140
2017-07-21T19:09:23.395Z,1014.175
2017-07-21T19:12:18.537Z,1014.202
2017-07-21T19:15:13.761Z,1014.228
2017-07-21T19:18:09.011Z,1014.207
2017-07-21T19:21:04.430Z,1014.192
2017-07-21T19:23:59.580Z,1014.213
2017-07-21T19:26:55.015Z,1014.240
2017-07-21T19:29:50.433Z,1014.278
2017-07-21T19:32:45.862Z,1014.307
2017-07-21T19:35:41.181Z,1014.329
2017-07-21T19:38:36.577Z,1014.345
2017-07-21T19:41:31.956Z,1014.393
2017-07-21T19:44:27.306Z,1014.444
2017-07-21T19:47:22.656Z,1014.443
2017-07-21T19:50:51.851Z,1014.475
2017-07-21T19:53:39.352Z,1014.505
2017-07-21T19:57:19.816Z,1014.535
2017-07-21T20:00:06.508Z,1014.548
2017-07-21T20:07:10.158Z,1014.548
2017-07-21T20:10:28.616Z,1014.594
2017-07-21T20:13:38.222Z,1014.628
2017-07-21T20:16:26.418Z,1014.636
2017-07-21T20:19:21.551Z,1014.645
2017-07-21T20:23:35.931Z,1014.717
2017-07-21T20:28:37.217Z,1014.741
2017-07-21T20:31:22.075Z,1014.747
2017-07-21T20:44:38.331Z,1014.864
2017-07-21T20:47:33.700Z,1014.852
2017-07-21T21:49:08.513Z,1014.907
